sensor_id;sensor_type;location;lat;lon;timestamp;P1;durP1;ratioP1;P2;durP2;ratioP2
37859;SDS011;23698;52.014;5.190;2023-04-15T00:01:25;11.10;;;5.10;;
37859;SDS011;23698;52.014;5.190;2023-04-15T00:04:12;10.38;;;4.88;;
37859;SDS011;23698;52.014;5.190;2023-04-15T00:06:58;12.20;;;4.97;;
37859;SDS011;23698;52.014;5.190;2023-04-15T00:09:46;9.70;;;4.22;;
37859;SDS011;23698;52.014;5.190;2023-04-15T00:12:33;8.15;;;4.65;;
37859;SDS011;23698;52.014;5.190;2023-04-15T00:15:19;7.43;;;4.60;;
37859;SDS011;23698;52.014;5.190;2023-04-15T00:18:07;7.93;;;4.75;;
37859;SDS011;23698;52.014;5.190;2023-04-15T00:20:53;10.90;;;4.32;;
37859;SDS011;23698;52.014;5.190;2023-04-15T00:23:39;10.98;;;5.32;;
37859;SDS011;23698;52.014;5.190;2023-04-15T00:26:26;9.85;;;4.57;;
37859;SDS011;23698;52.014;5.190;2023-04-15T00:29:13;10.00;;;4.35;;
37859;SDS011;23698;52.014;5.190;2023-04-15T00:32:00;11.85;;;4.50;;
37859;SDS011;23698;52.014;5.190;2023-04-15T00:34:47;13.70;;;4.60;;
37859;SDS011;23698;52.014;5.190;2023-04-15T00:37:34;7.72;;;4.35;;
37859;SDS011;23698;52.014;5.190;2023-04-15T00:40:22;10.65;;;5.25;;
37859;SDS011;23698;52.014;5.190;2023-04-15T00:43:09;7.40;;;4.32;;
37859;SDS011;23698;52.014;5.190;2023-04-15T00:45:56;8.70;;;5.07;;
37859;SDS011;23698;52.014;5.190;2023-04-15T00:48:44;7.85;;;4.55;;
37859;SDS011;23698;52.014;5.190;2023-04-15T00:51:33;7.93;;;4.78;;
37859;SDS011;23698;52.014;5.190;2023-04-15T00:54:20;13.85;;;4.75;;
37859;SDS011;23698;52.014;5.190;2023-04-15T00:57:07;15.00;;;4.97;;
37859;SDS011;23698;52.014;5.190;2023-04-15T00:59:53;9.40;;;5.45;;
37859;SDS011;23698;52.014;5.190;2023-04-15T01:02:40;9.43;;;4.85;;
37859;SDS011;23698;52.014;5.190;2023-04-15T01:05:27;7.40;;;4.57;;
37859;SDS011;23698;52.014;5.190;2023-04-15T01:08:16;8.57;;;4.30;;
37859;SDS011;23698;52.014;5.190;2023-04-15T01:11:02;17.80;;;4.63;;
37859;SDS011;23698;52.014;5.190;2023-04-15T01:13:48;11.27;;;5.50;;
37859;SDS011;23698;52.014;5.190;2023-04-15T01:16:36;8.77;;;4.75;;
37859;SDS011;23698;52.014;5.190;2023-04-15T01:19:24;17.70;;;5.10;;
37859;SDS011;23698;52.014;5.190;2023-04-15T01:22:11;12.18;;;5.25;;
37859;SDS011;23698;52.014;5.190;2023-04-15T01:25:00;9.00;;;4.75;;
37859;SDS011;23698;52.014;5.190;2023-04-15T01:27:53;11.10;;;5.45;;
37859;SDS011;23698;52.014;5.190;2023-04-15T01:30:39;8.68;;;5.63;;
37859;SDS011;23698;52.014;5.190;2023-04-15T01:33:26;10.80;;;5.32;;
37859;SDS011;23698;52.014;5.190;2023-04-15T01:36:12;10.18;;;5.68;;
37859;SDS011;23698;52.014;5.190;2023-04-15T01:38:59;11.85;;;5.85;;
37859;SDS011;23698;52.014;5.190;2023-04-15T01:41:46;10.15;;;6.20;;
37859;SDS011;23698;52.014;5.190;2023-04-15T01:44:34;12.88;;;6.30;;
37859;SDS011;23698;52.014;5.190;2023-04-15T01:47:21;11.15;;;6.30;;
37859;SDS011;23698;52.014;5.190;2023-04-15T01:50:07;11.73;;;6.50;;
37859;SDS011;23698;52.014;5.190;2023-04-15T01:52:54;10.90;;;6.57;;
37859;SDS011;23698;52.014;5.190;2023-04-15T01:55:41;12.07;;;6.47;;
37859;SDS011;23698;52.014;5.190;2023-04-15T01:58:28;14.23;;;5.80;;
37859;SDS011;23698;52.014;5.190;2023-04-15T02:01:16;12.00;;;6.13;;
37859;SDS011;23698;52.014;5.190;2023-04-15T02:04:05;11.85;;;6.03;;
37859;SDS011;23698;52.014;5.190;2023-04-15T02:06:52;11.85;;;6.60;;
37859;SDS011;23698;52.014;5.190;2023-04-15T02:09:38;11.50;;;6.50;;
37859;SDS011;23698;52.014;5.190;2023-04-15T02:12:25;10.23;;;5.72;;
37859;SDS011;23698;52.014;5.190;2023-04-15T02:15:11;11.43;;;5.55;;
37859;SDS011;23698;52.014;5.190;2023-04-15T02:18:00;10.98;;;5.72;;
37859;SDS011;23698;52.014;5.190;2023-04-15T02:20:46;11.35;;;6.10;;
37859;SDS011;23698;52.014;5.190;2023-04-15T02:23:33;6.97;;;5.35;;
37859;SDS011;23698;52.014;5.190;2023-04-15T02:26:20;12.32;;;5.78;;
37859;SDS011;23698;52.014;5.190;2023-04-15T02:29:06;9.82;;;6.10;;
37859;SDS011;23698;52.014;5.190;2023-04-15T02:31:52;7.82;;;5.63;;
37859;SDS011;23698;52.014;5.190;2023-04-15T02:34:40;9.52;;;6.03;;
37859;SDS011;23698;52.014;5.190;2023-04-15T02:37:27;13.05;;;5.85;;
37859;SDS011;23698;52.014;5.190;2023-04-15T02:40:15;10.20;;;6.68;;
37859;SDS011;23698;52.014;5.190;2023-04-15T02:43:03;11.10;;;6.13;;
37859;SDS011;23698;52.014;5.190;2023-04-15T02:45:51;13.63;;;7.43;;
37859;SDS011;23698;52.014;5.190;2023-04-15T02:48:38;11.43;;;6.70;;
37859;SDS011;23698;52.014;5.190;2023-04-15T02:51:29;15.45;;;6.65;;
37859;SDS011;23698;52.014;5.190;2023-04-15T02:54:16;9.52;;;5.93;;
37859;SDS011;23698;52.014;5.190;2023-04-15T02:57:02;10.32;;;5.43;;
37859;SDS011;23698;52.014;5.190;2023-04-15T02:59:50;12.93;;;6.25;;
37859;SDS011;23698;52.014;5.190;2023-04-15T03:02:40;13.18;;;5.82;;
37859;SDS011;23698;52.014;5.190;2023-04-15T03:05:26;12.98;;;6.47;;
37859;SDS011;23698;52.014;5.190;2023-04-15T03:08:15;9.25;;;6.07;;
37859;SDS011;23698;52.014;5.190;2023-04-15T03:11:01;13.27;;;7.00;;
37859;SDS011;23698;52.014;5.190;2023-04-15T03:13:48;12.25;;;5.68;;
37859;SDS011;23698;52.014;5.190;2023-04-15T03:16:44;12.55;;;5.78;;
37859;SDS011;23698;52.014;5.190;2023-04-15T03:19:33;12.07;;;6.30;;
37859;SDS011;23698;52.014;5.190;2023-04-15T03:22:20;9.00;;;5.80;;
37859;SDS011;23698;52.014;5.190;2023-04-15T03:25:08;11.68;;;6.55;;
37859;SDS011;23698;52.014;5.190;2023-04-15T03:27:55;15.18;;;6.20;;
37859;SDS011;23698;52.014;5.190;2023-04-15T03:30:42;12.32;;;6.43;;
37859;SDS011;23698;52.014;5.190;2023-04-15T03:33:28;12.27;;;7.05;;
37859;SDS011;23698;52.014;5.190;2023-04-15T03:36:15;14.52;;;6.80;;
37859;SDS011;23698;52.014;5.190;2023-04-15T03:39:01;11.07;;;6.35;;
37859;SDS011;23698;52.014;5.190;2023-04-15T03:41:49;12.90;;;6.85;;
37859;SDS011;23698;52.014;5.190;2023-04-15T03:44:35;15.25;;;6.38;;
37859;SDS011;23698;52.014;5.190;2023-04-15T03:47:22;10.13;;;6.57;;
37859;SDS011;23698;52.014;5.190;2023-04-15T03:50:08;14.40;;;7.78;;
37859;SDS011;23698;52.014;5.190;2023-04-15T03:52:55;11.27;;;6.25;;
37859;SDS011;23698;52.014;5.190;2023-04-15T03:55:41;12.43;;;6.95;;
37859;SDS011;23698;52.014;5.190;2023-04-15T03:58:30;11.57;;;7.20;;
37859;SDS011;23698;52.014;5.190;2023-04-15T04:01:16;13.88;;;7.07;;
37859;SDS011;23698;52.014;5.190;2023-04-15T04:04:02;11.75;;;7.10;;
37859;SDS011;23698;52.014;5.190;2023-04-15T04:06:49;10.68;;;6.30;;
37859;SDS011;23698;52.014;5.190;2023-04-15T04:09:35;13.05;;;6.50;;
37859;SDS011;23698;52.014;5.190;2023-04-15T04:12:23;10.50;;;7.03;;
37859;SDS011;23698;52.014;5.190;2023-04-15T04:15:10;12.57;;;6.97;;
37859;SDS011;23698;52.014;5.190;2023-04-15T04:17:56;12.55;;;7.53;;
37859;SDS011;23698;52.014;5.190;2023-04-15T04:20:43;14.73;;;6.78;;
37859;SDS011;23698;52.014;5.190;2023-04-15T04:23:29;12.63;;;7.13;;
37859;SDS011;23698;52.014;5.190;2023-04-15T04:26:15;13.02;;;6.95;;
37859;SDS011;23698;52.014;5.190;2023-04-15T04:29:02;13.88;;;6.85;;
37859;SDS011;23698;52.014;5.190;2023-04-15T04:31:49;12.00;;;7.28;;
37859;SDS011;23698;52.014;5.190;2023-04-15T04:34:40;10.70;;;7.25;;
37859;SDS011;23698;52.014;5.190;2023-04-15T04:37:26;12.93;;;7.15;;
37859;SDS011;23698;52.014;5.190;2023-04-15T04:40:12;15.55;;;7.75;;
37859;SDS011;23698;52.014;5.190;2023-04-15T04:42:58;11.60;;;7.40;;
37859;SDS011;23698;52.014;5.190;2023-04-15T04:45:45;15.68;;;7.88;;
37859;SDS011;23698;52.014;5.190;2023-04-15T04:48:33;12.82;;;7.93;;
37859;SDS011;23698;52.014;5.190;2023-04-15T04:51:19;17.00;;;9.38;;
37859;SDS011;23698;52.014;5.190;2023-04-15T04:54:06;12.40;;;7.63;;
37859;SDS011;23698;52.014;5.190;2023-04-15T04:56:52;13.23;;;8.13;;
37859;SDS011;23698;52.014;5.190;2023-04-15T04:59:38;18.77;;;7.90;;
37859;SDS011;23698;52.014;5.190;2023-04-15T05:02:25;13.50;;;8.10;;
37859;SDS011;23698;52.014;5.190;2023-04-15T05:05:13;13.40;;;7.65;;
37859;SDS011;23698;52.014;5.190;2023-04-15T05:08:00;14.38;;;7.88;;
37859;SDS011;23698;52.014;5.190;2023-04-15T05:10:46;13.77;;;8.05;;
37859;SDS011;23698;52.014;5.190;2023-04-15T05:13:32;11.77;;;7.95;;
37859;SDS011;23698;52.014;5.190;2023-04-15T05:16:18;13.20;;;8.00;;
37859;SDS011;23698;52.014;5.190;2023-04-15T05:19:04;15.43;;;8.00;;
37859;SDS011;23698;52.014;5.190;2023-04-15T05:21:53;15.50;;;7.82;;
37859;SDS011;23698;52.014;5.190;2023-04-15T05:24:39;14.05;;;7.90;;
37859;SDS011;23698;52.014;5.190;2023-04-15T05:27:25;17.17;;;8.02;;
37859;SDS011;23698;52.014;5.190;2023-04-15T05:30:12;13.30;;;8.13;;
37859;SDS011;23698;52.014;5.190;2023-04-15T05:32:58;15.07;;;8.00;;
37859;SDS011;23698;52.014;5.190;2023-04-15T05:35:44;18.30;;;8.55;;
37859;SDS011;23698;52.014;5.190;2023-04-15T05:38:32;12.60;;;7.90;;
37859;SDS011;23698;52.014;5.190;2023-04-15T05:41:18;17.60;;;8.15;;
37859;SDS011;23698;52.014;5.190;2023-04-15T05:44:04;23.02;;;8.85;;
37859;SDS011;23698;52.014;5.190;2023-04-15T05:46:51;12.52;;;8.95;;
37859;SDS011;23698;52.014;5.190;2023-04-15T05:49:37;17.15;;;9.35;;
37859;SDS011;23698;52.014;5.190;2023-04-15T05:52:24;13.27;;;8.25;;
37859;SDS011;23698;52.014;5.190;2023-04-15T05:55:12;14.20;;;8.88;;
37859;SDS011;23698;52.014;5.190;2023-04-15T05:57:58;15.63;;;8.45;;
37859;SDS011;23698;52.014;5.190;2023-04-15T06:00:44;14.60;;;9.07;;
37859;SDS011;23698;52.014;5.190;2023-04-15T06:03:31;14.10;;;8.32;;
37859;SDS011;23698;52.014;5.190;2023-04-15T06:06:18;15.13;;;9.02;;
37859;SDS011;23698;52.014;5.190;2023-04-15T06:09:05;16.98;;;7.97;;
37859;SDS011;23698;52.014;5.190;2023-04-15T06:11:52;14.43;;;7.70;;
37859;SDS011;23698;52.014;5.190;2023-04-15T06:14:40;14.50;;;9.15;;
37859;SDS011;23698;52.014;5.190;2023-04-15T06:17:26;13.10;;;8.73;;
37859;SDS011;23698;52.014;5.190;2023-04-15T06:20:13;18.48;;;8.85;;
37859;SDS011;23698;52.014;5.190;2023-04-15T06:22:59;14.18;;;8.63;;
37859;SDS011;23698;52.014;5.190;2023-04-15T06:25:46;17.35;;;9.77;;
37859;SDS011;23698;52.014;5.190;2023-04-15T06:28:33;16.92;;;8.88;;
37859;SDS011;23698;52.014;5.190;2023-04-15T06:31:20;14.93;;;8.80;;
37859;SDS011;23698;52.014;5.190;2023-04-15T06:34:06;13.02;;;8.68;;
37859;SDS011;23698;52.014;5.190;2023-04-15T06:36:53;18.23;;;8.88;;
37859;SDS011;23698;52.014;5.190;2023-04-15T06:39:40;15.63;;;8.98;;
37859;SDS011;23698;52.014;5.190;2023-04-15T06:42:26;16.77;;;8.98;;
37859;SDS011;23698;52.014;5.190;2023-04-15T06:45:14;14.07;;;8.65;;
37859;SDS011;23698;52.014;5.190;2023-04-15T06:48:01;17.98;;;8.52;;
37859;SDS011;23698;52.014;5.190;2023-04-15T06:50:47;17.30;;;8.05;;
37859;SDS011;23698;52.014;5.190;2023-04-15T06:53:34;10.75;;;7.90;;
37859;SDS011;23698;52.014;5.190;2023-04-15T06:56:25;11.75;;;8.05;;
37859;SDS011;23698;52.014;5.190;2023-04-15T06:59:11;13.77;;;8.52;;
37859;SDS011;23698;52.014;5.190;2023-04-15T07:02:02;15.53;;;8.87;;
37859;SDS011;23698;52.014;5.190;2023-04-15T07:04:50;12.00;;;8.10;;
37859;SDS011;23698;52.014;5.190;2023-04-15T07:07:37;12.30;;;8.23;;
37859;SDS011;23698;52.014;5.190;2023-04-15T07:10:23;13.95;;;7.63;;
37859;SDS011;23698;52.014;5.190;2023-04-15T07:13:10;18.60;;;8.00;;
37859;SDS011;23698;52.014;5.190;2023-04-15T07:15:56;13.23;;;8.05;;
37859;SDS011;23698;52.014;5.190;2023-04-15T07:18:44;12.25;;;7.82;;
37859;SDS011;23698;52.014;5.190;2023-04-15T07:21:30;12.10;;;7.80;;
37859;SDS011;23698;52.014;5.190;2023-04-15T07:24:17;12.77;;;7.95;;
37859;SDS011;23698;52.014;5.190;2023-04-15T07:27:04;13.60;;;8.40;;
37859;SDS011;23698;52.014;5.190;2023-04-15T07:29:51;15.40;;;8.77;;
37859;SDS011;23698;52.014;5.190;2023-04-15T07:32:37;13.60;;;8.05;;
37859;SDS011;23698;52.014;5.190;2023-04-15T07:35:25;12.60;;;7.93;;
37859;SDS011;23698;52.014;5.190;2023-04-15T07:38:12;14.73;;;8.32;;
37859;SDS011;23698;52.014;5.190;2023-04-15T07:40:59;12.65;;;7.65;;
37859;SDS011;23698;52.014;5.190;2023-04-15T07:43:45;15.40;;;7.63;;
37859;SDS011;23698;52.014;5.190;2023-04-15T07:46:32;10.02;;;6.63;;
37859;SDS011;23698;52.014;5.190;2023-04-15T07:49:18;10.45;;;5.63;;
37859;SDS011;23698;52.014;5.190;2023-04-15T07:52:06;11.73;;;5.85;;
37859;SDS011;23698;52.014;5.190;2023-04-15T07:54:52;10.35;;;5.68;;
37859;SDS011;23698;52.014;5.190;2023-04-15T07:57:39;10.48;;;5.53;;
37859;SDS011;23698;52.014;5.190;2023-04-15T08:00:26;8.07;;;5.13;;
37859;SDS011;23698;52.014;5.190;2023-04-15T08:03:12;8.30;;;5.70;;
37859;SDS011;23698;52.014;5.190;2023-04-15T08:05:59;10.65;;;5.63;;
37859;SDS011;23698;52.014;5.190;2023-04-15T08:08:48;9.57;;;5.63;;
37859;SDS011;23698;52.014;5.190;2023-04-15T08:11:34;7.85;;;5.22;;
37859;SDS011;23698;52.014;5.190;2023-04-15T08:14:21;7.55;;;4.50;;
37859;SDS011;23698;52.014;5.190;2023-04-15T08:17:09;8.05;;;4.50;;
37859;SDS011;23698;52.014;5.190;2023-04-15T08:19:55;8.00;;;4.70;;
37859;SDS011;23698;52.014;5.190;2023-04-15T08:22:41;8.10;;;5.13;;
37859;SDS011;23698;52.014;5.190;2023-04-15T08:25:29;11.75;;;5.22;;
37859;SDS011;23698;52.014;5.190;2023-04-15T08:28:15;9.70;;;4.40;;
37859;SDS011;23698;52.014;5.190;2023-04-15T08:31:01;9.25;;;4.85;;
37859;SDS011;23698;52.014;5.190;2023-04-15T08:33:48;7.95;;;4.25;;
37859;SDS011;23698;52.014;5.190;2023-04-15T08:36:37;7.53;;;4.78;;
37859;SDS011;23698;52.014;5.190;2023-04-15T08:39:23;7.70;;;4.32;;
37859;SDS011;23698;52.014;5.190;2023-04-15T08:42:14;10.25;;;4.90;;
37859;SDS011;23698;52.014;5.190;2023-04-15T08:45:03;8.65;;;4.40;;
37859;SDS011;23698;52.014;5.190;2023-04-15T08:47:50;6.15;;;4.32;;
37859;SDS011;23698;52.014;5.190;2023-04-15T08:50:41;8.77;;;4.30;;
37859;SDS011;23698;52.014;5.190;2023-04-15T08:53:28;7.55;;;4.57;;
37859;SDS011;23698;52.014;5.190;2023-04-15T08:56:15;5.78;;;3.40;;
37859;SDS011;23698;52.014;5.190;2023-04-15T08:59:03;5.80;;;3.30;;
37859;SDS011;23698;52.014;5.190;2023-04-15T09:01:50;7.70;;;3.88;;
37859;SDS011;23698;52.014;5.190;2023-04-15T09:04:37;6.22;;;2.60;;
37859;SDS011;23698;52.014;5.190;2023-04-15T09:07:24;5.30;;;2.60;;
37859;SDS011;23698;52.014;5.190;2023-04-15T09:10:11;6.18;;;3.00;;
37859;SDS011;23698;52.014;5.190;2023-04-15T09:12:58;5.05;;;2.58;;
37859;SDS011;23698;52.014;5.190;2023-04-15T09:15:45;6.53;;;3.00;;
37859;SDS011;23698;52.014;5.190;2023-04-15T09:18:32;6.65;;;2.95;;
37859;SDS011;23698;52.014;5.190;2023-04-15T09:21:19;8.98;;;3.72;;
37859;SDS011;23698;52.014;5.190;2023-04-15T09:24:07;7.53;;;3.35;;
37859;SDS011;23698;52.014;5.190;2023-04-15T09:26:53;4.95;;;3.10;;
37859;SDS011;23698;52.014;5.190;2023-04-15T09:29:43;5.88;;;3.90;;
37859;SDS011;23698;52.014;5.190;2023-04-15T09:32:30;6.10;;;3.50;;
37859;SDS011;23698;52.014;5.190;2023-04-15T09:35:17;8.20;;;3.38;;
37859;SDS011;23698;52.014;5.190;2023-04-15T09:38:05;8.32;;;3.65;;
37859;SDS011;23698;52.014;5.190;2023-04-15T09:40:54;4.80;;;2.70;;
37859;SDS011;23698;52.014;5.190;2023-04-15T09:43:40;4.30;;;2.25;;
37859;SDS011;23698;52.014;5.190;2023-04-15T09:46:39;6.22;;;2.45;;
37859;SDS011;23698;52.014;5.190;2023-04-15T09:49:28;4.57;;;2.38;;
37859;SDS011;23698;52.014;5.190;2023-04-15T09:52:14;6.43;;;2.90;;
37859;SDS011;23698;52.014;5.190;2023-04-15T09:55:01;3.58;;;2.53;;
37859;SDS011;23698;52.014;5.190;2023-04-15T09:57:48;5.22;;;2.50;;
37859;SDS011;23698;52.014;5.190;2023-04-15T10:00:34;8.55;;;2.45;;
37859;SDS011;23698;52.014;5.190;2023-04-15T10:03:23;5.35;;;2.40;;
37859;SDS011;23698;52.014;5.190;2023-04-15T10:06:12;4.43;;;2.40;;
37859;SDS011;23698;52.014;5.190;2023-04-15T10:09:00;4.93;;;2.40;;
37859;SDS011;23698;52.014;5.190;2023-04-15T10:11:47;8.25;;;2.60;;
37859;SDS011;23698;52.014;5.190;2023-04-15T10:14:35;5.53;;;2.10;;
37859;SDS011;23698;52.014;5.190;2023-04-15T10:17:23;5.38;;;2.97;;
37859;SDS011;23698;52.014;5.190;2023-04-15T10:20:15;5.45;;;3.25;;
37859;SDS011;23698;52.014;5.190;2023-04-15T10:23:05;7.07;;;2.85;;
37859;SDS011;23698;52.014;5.190;2023-04-15T10:25:55;5.55;;;2.03;;
37859;SDS011;23698;52.014;5.190;2023-04-15T10:28:43;2.75;;;2.00;;
37859;SDS011;23698;52.014;5.190;2023-04-15T10:31:30;5.95;;;2.35;;
37859;SDS011;23698;52.014;5.190;2023-04-15T10:34:18;4.40;;;2.35;;
37859;SDS011;23698;52.014;5.190;2023-04-15T10:37:04;3.38;;;2.15;;
37859;SDS011;23698;52.014;5.190;2023-04-15T10:39:56;2.63;;;1.90;;
37859;SDS011;23698;52.014;5.190;2023-04-15T10:42:42;3.55;;;2.08;;
37859;SDS011;23698;52.014;5.190;2023-04-15T10:45:31;5.38;;;2.30;;
37859;SDS011;23698;52.014;5.190;2023-04-15T10:48:18;8.13;;;2.17;;
37859;SDS011;23698;52.014;5.190;2023-04-15T10:51:05;3.42;;;2.20;;
37859;SDS011;23698;52.014;5.190;2023-04-15T10:53:54;5.22;;;2.60;;
37859;SDS011;23698;52.014;5.190;2023-04-15T10:56:43;5.00;;;3.00;;
37859;SDS011;23698;52.014;5.190;2023-04-15T10:59:30;4.38;;;2.28;;
37859;SDS011;23698;52.014;5.190;2023-04-15T11:02:17;5.32;;;2.90;;
37859;SDS011;23698;52.014;5.190;2023-04-15T11:05:04;5.82;;;3.88;;
37859;SDS011;23698;52.014;5.190;2023-04-15T11:07:52;5.68;;;2.40;;
37859;SDS011;23698;52.014;5.190;2023-04-15T11:10:49;7.05;;;2.88;;
37859;SDS011;23698;52.014;5.190;2023-04-15T11:13:47;5.32;;;2.60;;
37859;SDS011;23698;52.014;5.190;2023-04-15T11:16:40;4.47;;;2.95;;
37859;SDS011;23698;52.014;5.190;2023-04-15T11:19:34;6.22;;;3.00;;
37859;SDS011;23698;52.014;5.190;2023-04-15T11:22:22;3.85;;;2.70;;
37859;SDS011;23698;52.014;5.190;2023-04-15T11:25:08;6.15;;;2.90;;
37859;SDS011;23698;52.014;5.190;2023-04-15T11:27:55;3.63;;;2.55;;
37859;SDS011;23698;52.014;5.190;2023-04-15T11:30:43;3.97;;;2.58;;
37859;SDS011;23698;52.014;5.190;2023-04-15T11:33:30;3.55;;;2.45;;
37859;SDS011;23698;52.014;5.190;2023-04-15T11:36:17;3.28;;;2.08;;
37859;SDS011;23698;52.014;5.190;2023-04-15T11:39:05;3.95;;;2.17;;
37859;SDS011;23698;52.014;5.190;2023-04-15T11:41:52;4.28;;;2.42;;
37859;SDS011;23698;52.014;5.190;2023-04-15T11:44:39;3.42;;;2.20;;
37859;SDS011;23698;52.014;5.190;2023-04-15T11:47:26;4.95;;;2.22;;
37859;SDS011;23698;52.014;5.190;2023-04-15T11:50:13;3.72;;;1.70;;
37859;SDS011;23698;52.014;5.190;2023-04-15T11:53:01;1.98;;;1.33;;
37859;SDS011;23698;52.014;5.190;2023-04-15T11:55:54;3.38;;;1.50;;
37859;SDS011;23698;52.014;5.190;2023-04-15T11:58:41;2.90;;;1.20;;
37859;SDS011;23698;52.014;5.190;2023-04-15T12:01:31;2.25;;;1.20;;
37859;SDS011;23698;52.014;5.190;2023-04-15T12:04:20;2.33;;;1.13;;
37859;SDS011;23698;52.014;5.190;2023-04-15T12:07:10;2.38;;;1.40;;
37859;SDS011;23698;52.014;5.190;2023-04-15T12:09:56;2.58;;;1.52;;
37859;SDS011;23698;52.014;5.190;2023-04-15T12:12:49;2.67;;;1.40;;
37859;SDS011;23698;52.014;5.190;2023-04-15T12:15:36;4.82;;;1.42;;
37859;SDS011;23698;52.014;5.190;2023-04-15T12:18:23;3.63;;;1.50;;
37859;SDS011;23698;52.014;5.190;2023-04-15T12:21:12;3.60;;;1.45;;
37859;SDS011;23698;52.014;5.190;2023-04-15T12:24:00;3.55;;;1.70;;
37859;SDS011;23698;52.014;5.190;2023-04-15T12:26:49;4.25;;;1.67;;
37859;SDS011;23698;52.014;5.190;2023-04-15T12:29:37;2.70;;;1.40;;
37859;SDS011;23698;52.014;5.190;2023-04-15T12:32:25;2.55;;;1.30;;
37859;SDS011;23698;52.014;5.190;2023-04-15T12:35:12;4.40;;;1.35;;
37859;SDS011;23698;52.014;5.190;2023-04-15T12:37:59;2.83;;;1.20;;
37859;SDS011;23698;52.014;5.190;2023-04-15T12:40:45;2.47;;;1.42;;
37859;SDS011;23698;52.014;5.190;2023-04-15T12:43:32;5.88;;;1.55;;
37859;SDS011;23698;52.014;5.190;2023-04-15T12:46:18;3.25;;;1.67;;
37859;SDS011;23698;52.014;5.190;2023-04-15T12:49:05;2.08;;;1.70;;
37859;SDS011;23698;52.014;5.190;2023-04-15T12:51:53;6.20;;;1.60;;
37859;SDS011;23698;52.014;5.190;2023-04-15T12:54:41;5.28;;;1.52;;
37859;SDS011;23698;52.014;5.190;2023-04-15T12:57:30;3.35;;;1.60;;
37859;SDS011;23698;52.014;5.190;2023-04-15T13:00:17;3.67;;;1.30;;
37859;SDS011;23698;52.014;5.190;2023-04-15T13:03:03;3.55;;;1.40;;
37859;SDS011;23698;52.014;5.190;2023-04-15T13:05:51;4.60;;;1.60;;
37859;SDS011;23698;52.014;5.190;2023-04-15T13:08:41;4.25;;;1.50;;
37859;SDS011;23698;52.014;5.190;2023-04-15T13:11:47;2.25;;;1.23;;
37859;SDS011;23698;52.014;5.190;2023-04-15T13:14:35;1.75;;;1.10;;
37859;SDS011;23698;52.014;5.190;2023-04-15T13:17:21;4.00;;;1.50;;
37859;SDS011;23698;52.014;5.190;2023-04-15T13:20:07;2.55;;;1.42;;
37859;SDS011;23698;52.014;5.190;2023-04-15T13:22:55;1.65;;;1.13;;
37859;SDS011;23698;52.014;5.190;2023-04-15T13:25:45;3.05;;;1.40;;
37859;SDS011;23698;52.014;5.190;2023-04-15T13:28:33;1.50;;;1.15;;
37859;SDS011;23698;52.014;5.190;2023-04-15T13:31:23;2.15;;;1.60;;
37859;SDS011;23698;52.014;5.190;2023-04-15T13:34:09;1.80;;;1.27;;
37859;SDS011;23698;52.014;5.190;2023-04-15T13:36:55;1.75;;;1.30;;
37859;SDS011;23698;52.014;5.190;2023-04-15T13:39:41;2.85;;;1.33;;
37859;SDS011;23698;52.014;5.190;2023-04-15T13:42:27;3.55;;;1.38;;
37859;SDS011;23698;52.014;5.190;2023-04-15T13:45:15;2.60;;;1.20;;
37859;SDS011;23698;52.014;5.190;2023-04-15T13:50:51;2.08;;;1.25;;
37859;SDS011;23698;52.014;5.190;2023-04-15T13:53:38;3.65;;;2.25;;
37859;SDS011;23698;52.014;5.190;2023-04-15T13:56:24;3.55;;;1.30;;
37859;SDS011;23698;52.014;5.190;2023-04-15T13:59:11;1.92;;;1.00;;
37859;SDS011;23698;52.014;5.190;2023-04-15T14:01:59;4.00;;;1.05;;
37859;SDS011;23698;52.014;5.190;2023-04-15T14:04:46;4.15;;;1.13;;
37859;SDS011;23698;52.014;5.190;2023-04-15T14:07:32;2.97;;;1.08;;
37859;SDS011;23698;52.014;5.190;2023-04-15T14:10:19;3.80;;;1.05;;
37859;SDS011;23698;52.014;5.190;2023-04-15T14:13:05;1.77;;;1.00;;
37859;SDS011;23698;52.014;5.190;2023-04-15T14:15:52;3.03;;;1.00;;
37859;SDS011;23698;52.014;5.190;2023-04-15T14:18:40;3.15;;;1.20;;
37859;SDS011;23698;52.014;5.190;2023-04-15T14:21:26;1.63;;;0.98;;
37859;SDS011;23698;52.014;5.190;2023-04-15T14:24:14;2.92;;;0.70;;
37859;SDS011;23698;52.014;5.190;2023-04-15T14:27:00;3.42;;;0.55;;
37859;SDS011;23698;52.014;5.190;2023-04-15T14:29:47;3.38;;;1.00;;
37859;SDS011;23698;52.014;5.190;2023-04-15T14:32:33;2.75;;;0.98;;
37859;SDS011;23698;52.014;5.190;2023-04-15T14:35:21;2.85;;;1.65;;
37859;SDS011;23698;52.014;5.190;2023-04-15T14:38:08;5.40;;;2.92;;
37859;SDS011;23698;52.014;5.190;2023-04-15T14:40:55;35.13;;;17.85;;
37859;SDS011;23698;52.014;5.190;2023-04-15T14:43:42;21.05;;;11.93;;
37859;SDS011;23698;52.014;5.190;2023-04-15T14:46:28;3.92;;;1.55;;
37859;SDS011;23698;52.014;5.190;2023-04-15T14:49:15;6.00;;;3.42;;
37859;SDS011;23698;52.014;5.190;2023-04-15T14:52:02;4.68;;;2.45;;
37859;SDS011;23698;52.014;5.190;2023-04-15T14:54:50;4.68;;;3.42;;
37859;SDS011;23698;52.014;5.190;2023-04-15T14:57:36;4.07;;;1.10;;
37859;SDS011;23698;52.014;5.190;2023-04-15T15:00:23;4.72;;;1.20;;
37859;SDS011;23698;52.014;5.190;2023-04-15T15:03:10;2.03;;;0.90;;
37859;SDS011;23698;52.014;5.190;2023-04-15T15:05:57;4.30;;;1.38;;
37859;SDS011;23698;52.014;5.190;2023-04-15T15:08:46;3.13;;;1.00;;
37859;SDS011;23698;52.014;5.190;2023-04-15T15:11:32;3.13;;;1.02;;
37859;SDS011;23698;52.014;5.190;2023-04-15T15:14:18;5.22;;;1.23;;
37859;SDS011;23698;52.014;5.190;2023-04-15T15:17:06;3.13;;;1.50;;
37859;SDS011;23698;52.014;5.190;2023-04-15T15:19:52;5.00;;;1.10;;
37859;SDS011;23698;52.014;5.190;2023-04-15T15:22:38;5.20;;;1.92;;
37859;SDS011;23698;52.014;5.190;2023-04-15T15:25:26;4.50;;;1.00;;
37859;SDS011;23698;52.014;5.190;2023-04-15T15:28:13;2.53;;;1.10;;
37859;SDS011;23698;52.014;5.190;2023-04-15T15:30:59;7.30;;;1.13;;
37859;SDS011;23698;52.014;5.190;2023-04-15T15:33:46;6.85;;;1.05;;
37859;SDS011;23698;52.014;5.190;2023-04-15T15:36:32;3.78;;;1.33;;
37859;SDS011;23698;52.014;5.190;2023-04-15T15:39:18;9.43;;;1.10;;
37859;SDS011;23698;52.014;5.190;2023-04-15T15:42:06;4.97;;;1.33;;
37859;SDS011;23698;52.014;5.190;2023-04-15T15:44:52;6.95;;;1.80;;
37859;SDS011;23698;52.014;5.190;2023-04-15T15:47:39;4.53;;;0.68;;
37859;SDS011;23698;52.014;5.190;2023-04-15T15:50:25;3.58;;;0.82;;
37859;SDS011;23698;52.014;5.190;2023-04-15T15:53:12;7.15;;;1.00;;
37859;SDS011;23698;52.014;5.190;2023-04-15T15:56:02;7.18;;;1.23;;
37859;SDS011;23698;52.014;5.190;2023-04-15T15:58:51;3.72;;;0.80;;
37859;SDS011;23698;52.014;5.190;2023-04-15T16:01:37;6.72;;;1.15;;
37859;SDS011;23698;52.014;5.190;2023-04-15T16:04:24;7.50;;;1.30;;
37859;SDS011;23698;52.014;5.190;2023-04-15T16:07:11;5.60;;;1.17;;
37859;SDS011;23698;52.014;5.190;2023-04-15T16:09:58;4.55;;;0.93;;
37859;SDS011;23698;52.014;5.190;2023-04-15T16:12:44;3.72;;;0.98;;
37859;SDS011;23698;52.014;5.190;2023-04-15T16:15:32;4.43;;;0.73;;
37859;SDS011;23698;52.014;5.190;2023-04-15T16:18:19;7.43;;;1.48;;
37859;SDS011;23698;52.014;5.190;2023-04-15T16:21:05;5.90;;;0.80;;
37859;SDS011;23698;52.014;5.190;2023-04-15T16:23:52;6.38;;;1.15;;
37859;SDS011;23698;52.014;5.190;2023-04-15T16:26:39;6.07;;;1.35;;
37859;SDS011;23698;52.014;5.190;2023-04-15T16:29:25;4.97;;;1.27;;
37859;SDS011;23698;52.014;5.190;2023-04-15T16:32:13;7.22;;;1.48;;
37859;SDS011;23698;52.014;5.190;2023-04-15T16:35:01;8.02;;;1.35;;
37859;SDS011;23698;52.014;5.190;2023-04-15T16:37:48;5.78;;;1.45;;
37859;SDS011;23698;52.014;5.190;2023-04-15T16:40:35;10.75;;;2.80;;
37859;SDS011;23698;52.014;5.190;2023-04-15T16:43:21;7.00;;;1.52;;
37859;SDS011;23698;52.014;5.190;2023-04-15T16:46:08;5.28;;;1.40;;